Accueil
METAR-TAF:

METAR-TAF

Aéroports :

Aéroport Nikola-Tesla de Belgrade

Belgrade, Serbie

latitude: 44-49N, longitude: 020-17E, altitude: 96 m

Observation

Le bulletin a été fait il y a 15 minutes, à 14:00 UTC
Vent 8 kt de sud/sud-est, variant entre sud-est et sud
Température 12°C
Humidité 28%
Pression 1016 hPa
Visibilité 10 km ou plus
pas de nuages en-dessous de 1500 mètres et pas de cumulonimbus.

METAR: LYBE 291400Z 16008KT 130V190 CAVOK 12/M06 Q1016 NOSIG

Heure: 15:15 (14:15 UTC)

Prévision

Le bulletin a été fait il y a 3 heures et 15 minutes, à 11:00 UTC
Prévision valable du 29 à 12 UTC au 01 à 12 UTC
Vent 12 kt de sud/sud-est
Visibilité 10 km ou plus
pas de nuages en-dessous de 1500 mètres et pas de cumulonimbus.

TAF: LYBE 291100Z 2912/0112 15012KT CAVOK TX11/2913Z TN02/0106Z

Observations et prévisions météorologiques de plus de 4000 aéroports (messages METAR et TAF).

Les stations disponibles sont représentées par des disques jaunes et rouges sur la carte.

Passer la souris dessus pour voir le nom de la station.

Cliquer dessus pour voir les observations et prévisions météorologiques.

Pour changer de carte: cliquez sur les boutons verts avec une croix noire pour zoomer, sur le bouton vert avec un tiret pour effectuer un zoom arrière, ou sur les flèches vertes pour les cartes adjacentes.


METAR-TAF: